sensor_id;sensor_type;location;lat;lon;timestamp;temperature;humidity
4390;DHT22;2209;48.982;8.406;2024-03-23T00:51:21;16.20;99.90
4390;DHT22;2209;48.982;8.406;2024-03-23T00:53:43;16.20;99.90
4390;DHT22;2209;48.982;8.406;2024-03-23T00:56:05;16.10;99.90
4390;DHT22;2209;48.982;8.406;2024-03-23T00:58:26;16.10;99.90
4390;DHT22;2209;48.982;8.406;2024-03-23T01:00:48;16.10;99.90
4390;DHT22;2209;48.982;8.406;2024-03-23T01:03:10;16.10;99.90
4390;DHT22;2209;48.982;8.406;2024-03-23T01:05:33;16.10;99.90
4390;DHT22;2209;48.982;8.406;2024-03-23T01:07:57;16.10;99.90
4390;DHT22;2209;48.982;8.406;2024-03-23T01:10:19;16.10;99.90
4390;DHT22;2209;48.982;8.406;2024-03-23T01:12:40;16.10;99.90
4390;DHT22;2209;48.982;8.406;2024-03-23T01:15:06;16.10;99.90
4390;DHT22;2209;48.982;8.406;2024-03-23T01:17:27;16.10;99.90
4390;DHT22;2209;48.982;8.406;2024-03-23T01:19:51;16.10;99.90
4390;DHT22;2209;48.982;8.406;2024-03-23T01:22:19;16.00;99.90
4390;DHT22;2209;48.982;8.406;2024-03-23T01:24:43;15.90;99.90
4390;DHT22;2209;48.982;8.406;2024-03-23T01:27:05;15.90;99.90
4390;DHT22;2209;48.982;8.406;2024-03-23T01:29:30;15.90;99.90
4390;DHT22;2209;48.982;8.406;2024-03-23T01:31:51;15.90;99.90
4390;DHT22;2209;48.982;8.406;2024-03-23T01:34:13;15.90;99.90
4390;DHT22;2209;48.982;8.406;2024-03-23T01:36:36;15.90;99.90
4390;DHT22;2209;48.982;8.406;2024-03-23T01:38:59;15.90;99.90
4390;DHT22;2209;48.982;8.406;2024-03-23T01:41:21;15.80;99.90
4390;DHT22;2209;48.982;8.406;2024-03-23T01:43:43;15.80;99.90
4390;DHT22;2209;48.982;8.406;2024-03-23T01:46:04;15.70;99.90
4390;DHT22;2209;48.982;8.406;2024-03-23T01:48:26;15.70;99.90
4390;DHT22;2209;48.982;8.406;2024-03-23T01:50:48;15.70;99.90
4390;DHT22;2209;48.982;8.406;2024-03-23T01:53:10;15.60;99.90
4390;DHT22;2209;48.982;8.406;2024-03-23T01:55:36;15.50;99.90
4390;DHT22;2209;48.982;8.406;2024-03-23T01:57:58;15.50;99.90
4390;DHT22;2209;48.982;8.406;2024-03-23T02:00:19;15.40;99.90
4390;DHT22;2209;48.982;8.406;2024-03-23T02:02:45;15.40;99.90
4390;DHT22;2209;48.982;8.406;2024-03-23T02:05:10;15.30;99.90
4390;DHT22;2209;48.982;8.406;2024-03-23T02:07:32;15.30;99.90
4390;DHT22;2209;48.982;8.406;2024-03-23T02:09:56;15.30;99.90
4390;DHT22;2209;48.982;8.406;2024-03-23T02:12:20;15.30;99.90
4390;DHT22;2209;48.982;8.406;2024-03-23T02:14:42;15.30;99.90
4390;DHT22;2209;48.982;8.406;2024-03-23T02:17:05;15.20;99.90
4390;DHT22;2209;48.982;8.406;2024-03-23T02:19:26;15.30;99.90
4390;DHT22;2209;48.982;8.406;2024-03-23T02:21:49;15.30;99.90
4390;DHT22;2209;48.982;8.406;2024-03-23T02:24:11;15.30;99.90
4390;DHT22;2209;48.982;8.406;2024-03-23T02:26:33;15.30;99.90
4390;DHT22;2209;48.982;8.406;2024-03-23T02:28:55;15.30;99.90
4390;DHT22;2209;48.982;8.406;2024-03-23T02:31:17;15.30;99.90
4390;DHT22;2209;48.982;8.406;2024-03-23T02:33:38;15.30;99.90
4390;DHT22;2209;48.982;8.406;2024-03-23T02:36:00;15.20;99.90
4390;DHT22;2209;48.982;8.406;2024-03-23T02:38:21;15.20;99.90
4390;DHT22;2209;48.982;8.406;2024-03-23T02:40:45;15.20;99.90
4390;DHT22;2209;48.982;8.406;2024-03-23T02:43:06;15.20;99.90
4390;DHT22;2209;48.982;8.406;2024-03-23T02:45:28;15.20;99.90
4390;DHT22;2209;48.982;8.406;2024-03-23T02:47:49;15.20;99.90
4390;DHT22;2209;48.982;8.406;2024-03-23T02:50:12;15.20;99.90
4390;DHT22;2209;48.982;8.406;2024-03-23T02:52:36;15.20;99.90
4390;DHT22;2209;48.982;8.406;2024-03-23T02:54:58;15.20;99.90
4390;DHT22;2209;48.982;8.406;2024-03-23T02:57:20;15.30;99.90
4390;DHT22;2209;48.982;8.406;2024-03-23T02:59:43;15.30;99.90
4390;DHT22;2209;48.982;8.406;2024-03-23T03:02:04;15.40;99.90
4390;DHT22;2209;48.982;8.406;2024-03-23T03:04:27;15.40;99.90
4390;DHT22;2209;48.982;8.406;2024-03-23T03:06:49;15.40;99.90
4390;DHT22;2209;48.982;8.406;2024-03-23T03:09:11;15.40;99.90
4390;DHT22;2209;48.982;8.406;2024-03-23T03:11:32;15.40;99.90
4390;DHT22;2209;48.982;8.406;2024-03-23T03:13:56;15.40;99.90
4390;DHT22;2209;48.982;8.406;2024-03-23T03:16:17;15.40;99.90
4390;DHT22;2209;48.982;8.406;2024-03-23T03:18:39;15.40;99.90
4390;DHT22;2209;48.982;8.406;2024-03-23T03:21:01;15.40;99.90
4390;DHT22;2209;48.982;8.406;2024-03-23T03:23:23;15.40;99.90
4390;DHT22;2209;48.982;8.406;2024-03-23T03:25:44;15.40;99.90
4390;DHT22;2209;48.982;8.406;2024-03-23T03:28:06;15.40;99.90
4390;DHT22;2209;48.982;8.406;2024-03-23T03:30:29;15.40;99.90
4390;DHT22;2209;48.982;8.406;2024-03-23T03:32:53;15.40;99.90
4390;DHT22;2209;48.982;8.406;2024-03-23T03:35:14;15.40;99.90
4390;DHT22;2209;48.982;8.406;2024-03-23T03:37:36;15.40;99.90
4390;DHT22;2209;48.982;8.406;2024-03-23T03:39:57;15.30;99.90
4390;DHT22;2209;48.982;8.406;2024-03-23T03:42:19;15.30;99.90
4390;DHT22;2209;48.982;8.406;2024-03-23T03:44:40;15.30;99.90
4390;DHT22;2209;48.982;8.406;2024-03-23T03:47:04;15.30;99.90
4390;DHT22;2209;48.982;8.406;2024-03-23T03:49:26;15.30;99.90
4390;DHT22;2209;48.982;8.406;2024-03-23T03:51:48;15.30;99.90
4390;DHT22;2209;48.982;8.406;2024-03-23T03:54:09;15.30;99.90
4390;DHT22;2209;48.982;8.406;2024-03-23T03:56:32;15.30;99.90
4390;DHT22;2209;48.982;8.406;2024-03-23T03:58:53;15.20;99.90
4390;DHT22;2209;48.982;8.406;2024-03-23T04:01:15;15.20;99.90
4390;DHT22;2209;48.982;8.406;2024-03-23T04:03:38;15.10;99.90
4390;DHT22;2209;48.982;8.406;2024-03-23T04:06:04;15.10;99.90
4390;DHT22;2209;48.982;8.406;2024-03-23T04:08:25;15.10;99.90
4390;DHT22;2209;48.982;8.406;2024-03-23T04:10:47;15.10;99.90
4390;DHT22;2209;48.982;8.406;2024-03-23T04:13:09;15.10;99.90
4390;DHT22;2209;48.982;8.406;2024-03-23T04:15:31;15.10;99.90
4390;DHT22;2209;48.982;8.406;2024-03-23T04:17:52;15.20;99.90
4390;DHT22;2209;48.982;8.406;2024-03-23T04:20:16;15.20;99.90
4390;DHT22;2209;48.982;8.406;2024-03-23T04:22:38;15.20;99.90
4390;DHT22;2209;48.982;8.406;2024-03-23T04:25:00;15.20;99.90
4390;DHT22;2209;48.982;8.406;2024-03-23T04:27:21;15.10;99.90
4390;DHT22;2209;48.982;8.406;2024-03-23T04:29:47;15.10;99.90
4390;DHT22;2209;48.982;8.406;2024-03-23T04:32:08;15.00;99.90
4390;DHT22;2209;48.982;8.406;2024-03-23T04:34:30;15.10;99.90
4390;DHT22;2209;48.982;8.406;2024-03-23T04:36:55;14.90;99.90
4390;DHT22;2209;48.982;8.406;2024-03-23T04:39:17;14.90;99.90
4390;DHT22;2209;48.982;8.406;2024-03-23T04:41:40;14.90;99.90
4390;DHT22;2209;48.982;8.406;2024-03-23T04:44:02;14.80;99.90
4390;DHT22;2209;48.982;8.406;2024-03-23T04:46:24;14.80;99.90
4390;DHT22;2209;48.982;8.406;2024-03-23T04:48:47;14.70;99.90
4390;DHT22;2209;48.982;8.406;2024-03-23T04:51:09;14.70;99.90
4390;DHT22;2209;48.982;8.406;2024-03-23T04:53:34;14.60;99.90
4390;DHT22;2209;48.982;8.406;2024-03-23T04:55:56;14.60;99.90
4390;DHT22;2209;48.982;8.406;2024-03-23T04:58:20;14.50;99.90
4390;DHT22;2209;48.982;8.406;2024-03-23T05:00:41;14.50;99.90
4390;DHT22;2209;48.982;8.406;2024-03-23T05:03:03;14.50;99.90
4390;DHT22;2209;48.982;8.406;2024-03-23T05:05:26;14.50;99.90
4390;DHT22;2209;48.982;8.406;2024-03-23T05:07:47;14.50;99.90
4390;DHT22;2209;48.982;8.406;2024-03-23T05:10:10;14.50;99.90
4390;DHT22;2209;48.982;8.406;2024-03-23T05:12:32;14.50;99.90
4390;DHT22;2209;48.982;8.406;2024-03-23T05:14:54;14.50;99.90
4390;DHT22;2209;48.982;8.406;2024-03-23T05:17:15;14.50;99.90
4390;DHT22;2209;48.982;8.406;2024-03-23T05:19:37;14.40;99.90
4390;DHT22;2209;48.982;8.406;2024-03-23T05:21:58;14.40;99.90
4390;DHT22;2209;48.982;8.406;2024-03-23T05:24:21;14.20;99.90
4390;DHT22;2209;48.982;8.406;2024-03-23T05:26:43;14.20;99.90
4390;DHT22;2209;48.982;8.406;2024-03-23T05:29:06;14.20;99.90
4390;DHT22;2209;48.982;8.406;2024-03-23T05:31:31;14.10;99.90
4390;DHT22;2209;48.982;8.406;2024-03-23T05:33:53;14.10;99.90
4390;DHT22;2209;48.982;8.406;2024-03-23T05:36:15;14.10;99.90
4390;DHT22;2209;48.982;8.406;2024-03-23T05:38:37;14.00;99.90
4390;DHT22;2209;48.982;8.406;2024-03-23T05:40:59;13.90;99.90
4390;DHT22;2209;48.982;8.406;2024-03-23T05:43:24;13.90;99.90
4390;DHT22;2209;48.982;8.406;2024-03-23T05:45:45;13.90;99.90
4390;DHT22;2209;48.982;8.406;2024-03-23T05:48:07;13.90;99.90
4390;DHT22;2209;48.982;8.406;2024-03-23T05:50:28;13.80;99.90
4390;DHT22;2209;48.982;8.406;2024-03-23T05:52:50;13.80;99.90
4390;DHT22;2209;48.982;8.406;2024-03-23T05:55:12;13.70;99.90
4390;DHT22;2209;48.982;8.406;2024-03-23T05:57:34;13.70;99.90
4390;DHT22;2209;48.982;8.406;2024-03-23T05:59:56;13.70;99.90
4390;DHT22;2209;48.982;8.406;2024-03-23T06:02:19;13.60;99.90
4390;DHT22;2209;48.982;8.406;2024-03-23T06:04:40;13.50;99.90
4390;DHT22;2209;48.982;8.406;2024-03-23T06:07:02;13.50;99.90
4390;DHT22;2209;48.982;8.406;2024-03-23T06:09:23;13.50;99.90
4390;DHT22;2209;48.982;8.406;2024-03-23T06:11:46;13.50;99.90
4390;DHT22;2209;48.982;8.406;2024-03-23T06:14:07;13.50;99.90
4390;DHT22;2209;48.982;8.406;2024-03-23T06:16:31;13.50;99.90
4390;DHT22;2209;48.982;8.406;2024-03-23T06:18:52;13.50;99.90
4390;DHT22;2209;48.982;8.406;2024-03-23T06:21:15;13.40;99.90
4390;DHT22;2209;48.982;8.406;2024-03-23T06:23:36;13.40;99.90
4390;DHT22;2209;48.982;8.406;2024-03-23T06:25:59;13.30;99.90
4390;DHT22;2209;48.982;8.406;2024-03-23T06:28:20;13.30;99.90
4390;DHT22;2209;48.982;8.406;2024-03-23T06:30:42;13.30;99.90
4390;DHT22;2209;48.982;8.406;2024-03-23T06:33:05;13.20;99.90
4390;DHT22;2209;48.982;8.406;2024-03-23T06:35:27;13.20;99.90
4390;DHT22;2209;48.982;8.406;2024-03-23T06:37:48;13.20;99.90
4390;DHT22;2209;48.982;8.406;2024-03-23T06:40:10;13.20;99.90
4390;DHT22;2209;48.982;8.406;2024-03-23T06:42:31;13.20;99.90
4390;DHT22;2209;48.982;8.406;2024-03-23T06:44:54;13.20;99.90
4390;DHT22;2209;48.982;8.406;2024-03-23T06:47:15;13.30;99.90
4390;DHT22;2209;48.982;8.406;2024-03-23T06:49:38;13.30;99.90
4390;DHT22;2209;48.982;8.406;2024-03-23T06:51:59;13.30;99.90
4390;DHT22;2209;48.982;8.406;2024-03-23T06:54:21;13.30;99.90
4390;DHT22;2209;48.982;8.406;2024-03-23T06:56:44;13.30;99.90
4390;DHT22;2209;48.982;8.406;2024-03-23T06:59:07;13.20;99.90
4390;DHT22;2209;48.982;8.406;2024-03-23T07:01:28;13.10;99.90
4390;DHT22;2209;48.982;8.406;2024-03-23T07:03:50;13.00;99.90
4390;DHT22;2209;48.982;8.406;2024-03-23T07:06:13;12.90;99.90
4390;DHT22;2209;48.982;8.406;2024-03-23T07:08:35;12.90;99.90
4390;DHT22;2209;48.982;8.406;2024-03-23T07:10:56;12.90;99.90
4390;DHT22;2209;48.982;8.406;2024-03-23T07:13:18;12.80;99.90
4390;DHT22;2209;48.982;8.406;2024-03-23T07:15:40;12.80;99.90
4390;DHT22;2209;48.982;8.406;2024-03-23T07:18:02;12.60;99.90
4390;DHT22;2209;48.982;8.406;2024-03-23T07:20:23;12.50;99.90
4390;DHT22;2209;48.982;8.406;2024-03-23T07:22:47;12.50;99.90
4390;DHT22;2209;48.982;8.406;2024-03-23T07:25:08;12.50;99.90
4390;DHT22;2209;48.982;8.406;2024-03-23T07:27:30;12.50;99.90
4390;DHT22;2209;48.982;8.406;2024-03-23T07:29:51;12.60;99.90
4390;DHT22;2209;48.982;8.406;2024-03-23T07:32:13;12.60;99.90
4390;DHT22;2209;48.982;8.406;2024-03-23T07:34:34;12.60;99.90
4390;DHT22;2209;48.982;8.406;2024-03-23T07:36:56;12.60;99.90
4390;DHT22;2209;48.982;8.406;2024-03-23T07:39:19;12.60;99.90
4390;DHT22;2209;48.982;8.406;2024-03-23T07:41:44;12.60;99.90
4390;DHT22;2209;48.982;8.406;2024-03-23T07:44:05;12.70;99.90
4390;DHT22;2209;48.982;8.406;2024-03-23T07:46:27;12.70;99.90
4390;DHT22;2209;48.982;8.406;2024-03-23T07:48:48;12.70;99.90
4390;DHT22;2209;48.982;8.406;2024-03-23T07:51:15;12.70;99.90
4390;DHT22;2209;48.982;8.406;2024-03-23T07:53:37;12.80;99.90
4390;DHT22;2209;48.982;8.406;2024-03-23T07:56:02;12.80;99.90
4390;DHT22;2209;48.982;8.406;2024-03-23T07:58:23;12.70;99.90
4390;DHT22;2209;48.982;8.406;2024-03-23T08:00:45;12.70;99.90
4390;DHT22;2209;48.982;8.406;2024-03-23T08:03:07;12.60;99.90
4390;DHT22;2209;48.982;8.406;2024-03-23T08:05:29;12.60;99.90
4390;DHT22;2209;48.982;8.406;2024-03-23T08:07:50;12.60;99.90
4390;DHT22;2209;48.982;8.406;2024-03-23T08:10:12;12.60;99.90
4390;DHT22;2209;48.982;8.406;2024-03-23T08:12:35;12.60;99.90
4390;DHT22;2209;48.982;8.406;2024-03-23T08:14:57;12.60;99.90
4390;DHT22;2209;48.982;8.406;2024-03-23T08:17:18;12.60;99.90
4390;DHT22;2209;48.982;8.406;2024-03-23T08:19:40;12.60;99.90
4390;DHT22;2209;48.982;8.406;2024-03-23T08:22:01;12.50;99.90
4390;DHT22;2209;48.982;8.406;2024-03-23T08:24:24;12.50;99.90
4390;DHT22;2209;48.982;8.406;2024-03-23T08:26:45;12.50;99.90
4390;DHT22;2209;48.982;8.406;2024-03-23T08:29:08;12.50;99.90
4390;DHT22;2209;48.982;8.406;2024-03-23T08:31:29;12.40;99.90
4390;DHT22;2209;48.982;8.406;2024-03-23T08:33:51;12.40;99.90
4390;DHT22;2209;48.982;8.406;2024-03-23T08:36:13;12.50;98.80
4390;DHT22;2209;48.982;8.406;2024-03-23T08:38:35;12.60;98.00
4390;DHT22;2209;48.982;8.406;2024-03-23T08:40:57;12.50;97.80
4390;DHT22;2209;48.982;8.406;2024-03-23T08:43:19;12.50;97.40
4390;DHT22;2209;48.982;8.406;2024-03-23T08:45:41;12.50;96.80
4390;DHT22;2209;48.982;8.406;2024-03-23T08:48:04;12.40;96.10
4390;DHT22;2209;48.982;8.406;2024-03-23T08:50:25;12.30;95.70
4390;DHT22;2209;48.982;8.406;2024-03-23T08:52:47;12.20;95.80
4390;DHT22;2209;48.982;8.406;2024-03-23T08:55:09;12.00;96.40
4390;DHT22;2209;48.982;8.406;2024-03-23T08:57:33;11.90;97.10
4390;DHT22;2209;48.982;8.406;2024-03-23T08:59:54;12.10;97.40
4390;DHT22;2209;48.982;8.406;2024-03-23T09:02:18;12.20;96.60
4390;DHT22;2209;48.982;8.406;2024-03-23T09:04:39;12.40;96.10
4390;DHT22;2209;48.982;8.406;2024-03-23T09:07:01;12.50;94.70
4390;DHT22;2209;48.982;8.406;2024-03-23T09:09:22;12.60;94.40
4390;DHT22;2209;48.982;8.406;2024-03-23T09:11:44;12.60;93.80
4390;DHT22;2209;48.982;8.406;2024-03-23T09:14:05;12.60;94.00
4390;DHT22;2209;48.982;8.406;2024-03-23T09:16:27;12.60;92.80
4390;DHT22;2209;48.982;8.406;2024-03-23T09:18:51;12.60;92.80
4390;DHT22;2209;48.982;8.406;2024-03-23T09:21:13;12.50;92.60
4390;DHT22;2209;48.982;8.406;2024-03-23T09:23:35;12.50;92.60
4390;DHT22;2209;48.982;8.406;2024-03-23T09:25:57;12.50;92.90
4390;DHT22;2209;48.982;8.406;2024-03-23T09:28:18;12.40;92.80
4390;DHT22;2209;48.982;8.406;2024-03-23T09:30:40;12.40;93.00
4390;DHT22;2209;48.982;8.406;2024-03-23T09:33:03;12.30;93.30
4390;DHT22;2209;48.982;8.406;2024-03-23T09:35:26;12.20;93.50
4390;DHT22;2209;48.982;8.406;2024-03-23T09:37:47;12.10;92.80
4390;DHT22;2209;48.982;8.406;2024-03-23T09:40:10;12.00;92.60
4390;DHT22;2209;48.982;8.406;2024-03-23T09:42:32;11.80;93.10
4390;DHT22;2209;48.982;8.406;2024-03-23T09:44:57;11.80;93.00
4390;DHT22;2209;48.982;8.406;2024-03-23T09:47:18;11.90;92.80
4390;DHT22;2209;48.982;8.406;2024-03-23T09:49:40;12.00;93.10
4390;DHT22;2209;48.982;8.406;2024-03-23T09:52:03;12.10;93.40
4390;DHT22;2209;48.982;8.406;2024-03-23T09:54:25;12.10;93.50
4390;DHT22;2209;48.982;8.406;2024-03-23T09:56:46;12.20;93.70
4390;DHT22;2209;48.982;8.406;2024-03-23T09:59:08;12.10;95.30
4390;DHT22;2209;48.982;8.406;2024-03-23T10:01:30;11.80;97.90
4390;DHT22;2209;48.982;8.406;2024-03-23T10:03:52;11.50;99.00
4390;DHT22;2209;48.982;8.406;2024-03-23T10:06:13;11.40;99.60
4390;DHT22;2209;48.982;8.406;2024-03-23T10:08:37;11.40;99.70
4390;DHT22;2209;48.982;8.406;2024-03-23T10:10:58;11.50;99.90
4390;DHT22;2209;48.982;8.406;2024-03-23T10:13:33;11.50;99.90
4390;DHT22;2209;48.982;8.406;2024-03-23T10:15:56;11.50;99.90
4390;DHT22;2209;48.982;8.406;2024-03-23T10:18:19;11.60;99.90
4390;DHT22;2209;48.982;8.406;2024-03-23T10:20:41;11.70;99.90
4390;DHT22;2209;48.982;8.406;2024-03-23T10:23:05;11.80;99.90
4390;DHT22;2209;48.982;8.406;2024-03-23T10:25:37;11.80;99.90
4390;DHT22;2209;48.982;8.406;2024-03-23T10:28:00;11.80;99.90
4390;DHT22;2209;48.982;8.406;2024-03-23T10:30:22;11.80;99.90
4390;DHT22;2209;48.982;8.406;2024-03-23T10:32:47;11.90;99.90
4390;DHT22;2209;48.982;8.406;2024-03-23T10:35:15;11.90;99.90
4390;DHT22;2209;48.982;8.406;2024-03-23T10:37:37;11.90;99.90
4390;DHT22;2209;48.982;8.406;2024-03-23T10:39:58;11.90;99.90
4390;DHT22;2209;48.982;8.406;2024-03-23T10:42:22;11.90;99.90
4390;DHT22;2209;48.982;8.406;2024-03-23T10:44:43;11.80;99.90
4390;DHT22;2209;48.982;8.406;2024-03-23T10:47:05;11.80;99.90
4390;DHT22;2209;48.982;8.406;2024-03-23T10:49:27;11.70;99.90
4390;DHT22;2209;48.982;8.406;2024-03-23T10:51:50;11.70;99.90
4390;DHT22;2209;48.982;8.406;2024-03-23T10:54:11;11.60;99.90
4390;DHT22;2209;48.982;8.406;2024-03-23T10:56:36;11.50;99.90
4390;DHT22;2209;48.982;8.406;2024-03-23T10:58:59;11.50;99.90
4390;DHT22;2209;48.982;8.406;2024-03-23T11:01:23;11.50;99.90
4390;DHT22;2209;48.982;8.406;2024-03-23T11:03:45;11.40;99.90
4390;DHT22;2209;48.982;8.406;2024-03-23T11:06:07;11.40;99.90
4390;DHT22;2209;48.982;8.406;2024-03-23T11:08:33;11.40;99.90
4390;DHT22;2209;48.982;8.406;2024-03-23T11:11:11;11.30;99.90
4390;DHT22;2209;48.982;8.406;2024-03-23T11:13:33;11.40;99.90
4390;DHT22;2209;48.982;8.406;2024-03-23T11:16:13;11.30;99.90
4390;DHT22;2209;48.982;8.406;2024-03-23T11:18:34;11.40;99.90
4390;DHT22;2209;48.982;8.406;2024-03-23T11:20:56;11.40;99.90
4390;DHT22;2209;48.982;8.406;2024-03-23T11:23:27;11.40;99.90
4390;DHT22;2209;48.982;8.406;2024-03-23T11:25:49;11.40;99.90
4390;DHT22;2209;48.982;8.406;2024-03-23T11:28:11;11.40;99.90
4390;DHT22;2209;48.982;8.406;2024-03-23T11:30:33;11.40;99.90
4390;DHT22;2209;48.982;8.406;2024-03-23T11:32:58;11.50;99.90
4390;DHT22;2209;48.982;8.406;2024-03-23T11:35:27;11.50;99.90
4390;DHT22;2209;48.982;8.406;2024-03-23T11:38:07;11.50;99.90
4390;DHT22;2209;48.982;8.406;2024-03-23T11:40:29;11.50;99.90
4390;DHT22;2209;48.982;8.406;2024-03-23T11:42:55;11.50;99.90
4390;DHT22;2209;48.982;8.406;2024-03-23T11:45:18;11.50;99.90
4390;DHT22;2209;48.982;8.406;2024-03-23T11:47:39;11.50;99.90
4390;DHT22;2209;48.982;8.406;2024-03-23T11:50:03;11.50;99.90
4390;DHT22;2209;48.982;8.406;2024-03-23T11:52:24;11.50;99.90
4390;DHT22;2209;48.982;8.406;2024-03-23T11:54:46;11.50;99.90
4390;DHT22;2209;48.982;8.406;2024-03-23T11:57:08;11.50;99.90
4390;DHT22;2209;48.982;8.406;2024-03-23T11:59:32;11.50;99.90
4390;DHT22;2209;48.982;8.406;2024-03-23T12:01:54;11.50;99.90
4390;DHT22;2209;48.982;8.406;2024-03-23T12:04:25;11.50;99.90
4390;DHT22;2209;48.982;8.406;2024-03-23T12:06:48;11.50;99.90
4390;DHT22;2209;48.982;8.406;2024-03-23T12:09:10;11.50;99.90
4390;DHT22;2209;48.982;8.406;2024-03-23T12:11:31;11.60;99.90
4390;DHT22;2209;48.982;8.406;2024-03-23T12:13:53;11.60;99.90
4390;DHT22;2209;48.982;8.406;2024-03-23T12:16:20;11.60;99.90
4390;DHT22;2209;48.982;8.406;2024-03-23T12:18:44;11.70;99.90
4390;DHT22;2209;48.982;8.406;2024-03-23T12:21:05;11.80;99.90
4390;DHT22;2209;48.982;8.406;2024-03-23T12:23:29;11.90;99.70
4390;DHT22;2209;48.982;8.406;2024-03-23T12:25:50;11.90;99.60
4390;DHT22;2209;48.982;8.406;2024-03-23T12:28:12;12.00;99.60
4390;DHT22;2209;48.982;8.406;2024-03-23T12:30:35;12.10;99.70
4390;DHT22;2209;48.982;8.406;2024-03-23T12:32:57;12.10;99.70
4390;DHT22;2209;48.982;8.406;2024-03-23T12:35:18;12.20;99.70
4390;DHT22;2209;48.982;8.406;2024-03-23T12:37:40;12.20;99.90
4390;DHT22;2209;48.982;8.406;2024-03-23T12:40:03;12.10;99.90
4390;DHT22;2209;48.982;8.406;2024-03-23T12:42:25;12.10;99.90
4390;DHT22;2209;48.982;8.406;2024-03-23T12:44:46;12.10;99.90
4390;DHT22;2209;48.982;8.406;2024-03-23T12:47:09;12.00;99.90
4390;DHT22;2209;48.982;8.406;2024-03-23T12:49:31;12.00;99.90
4390;DHT22;2209;48.982;8.406;2024-03-23T12:51:55;12.00;99.90
4390;DHT22;2209;48.982;8.406;2024-03-23T12:54:16;11.90;99.50
4390;DHT22;2209;48.982;8.406;2024-03-23T12:56:40;11.90;99.60
4390;DHT22;2209;48.982;8.406;2024-03-23T12:59:01;11.80;97.90
4390;DHT22;2209;48.982;8.406;2024-03-23T13:01:24;11.70;97.70
4390;DHT22;2209;48.982;8.406;2024-03-23T13:03:46;11.60;97.30
4390;DHT22;2209;48.982;8.406;2024-03-23T13:06:08;11.60;97.70
4390;DHT22;2209;48.982;8.406;2024-03-23T13:08:29;11.50;98.00
4390;DHT22;2209;48.982;8.406;2024-03-23T13:10:51;11.30;97.90
4390;DHT22;2209;48.982;8.406;2024-03-23T13:13:14;11.20;98.60
4390;DHT22;2209;48.982;8.406;2024-03-23T13:15:36;11.10;98.50
4390;DHT22;2209;48.982;8.406;2024-03-23T13:17:57;11.10;98.50
4390;DHT22;2209;48.982;8.406;2024-03-23T13:20:19;11.10;98.00
4390;DHT22;2209;48.982;8.406;2024-03-23T13:22:41;11.10;98.10
4390;DHT22;2209;48.982;8.406;2024-03-23T13:25:03;11.10;97.70
4390;DHT22;2209;48.982;8.406;2024-03-23T13:27:24;10.90;97.60
4390;DHT22;2209;48.982;8.406;2024-03-23T13:29:48;10.90;97.30
4390;DHT22;2209;48.982;8.406;2024-03-23T13:32:09;10.90;97.70
4390;DHT22;2209;48.982;8.406;2024-03-23T13:34:31;10.90;98.10
4390;DHT22;2209;48.982;8.406;2024-03-23T13:36:52;11.00;97.50
4390;DHT22;2209;48.982;8.406;2024-03-23T13:39:15;11.20;97.40
4390;DHT22;2209;48.982;8.406;2024-03-23T13:41:37;11.20;97.40
4390;DHT22;2209;48.982;8.406;2024-03-23T13:43:59;11.20;97.60
4390;DHT22;2209;48.982;8.406;2024-03-23T13:46:22;11.20;97.60
4390;DHT22;2209;48.982;8.406;2024-03-23T13:48:44;11.20;97.70
4390;DHT22;2209;48.982;8.406;2024-03-23T13:51:05;11.20;98.00
4390;DHT22;2209;48.982;8.406;2024-03-23T13:53:27;11.30;98.30
4390;DHT22;2209;48.982;8.406;2024-03-23T13:55:48;11.30;97.80
4390;DHT22;2209;48.982;8.406;2024-03-23T13:58:10;11.40;97.30
4390;DHT22;2209;48.982;8.406;2024-03-23T14:00:33;11.40;97.30
4390;DHT22;2209;48.982;8.406;2024-03-23T14:02:56;11.40;97.20
4390;DHT22;2209;48.982;8.406;2024-03-23T14:05:17;11.50;97.20
4390;DHT22;2209;48.982;8.406;2024-03-23T14:07:39;11.60;97.20
4390;DHT22;2209;48.982;8.406;2024-03-23T14:10:02;11.70;97.90
4390;DHT22;2209;48.982;8.406;2024-03-23T14:12:25;11.80;96.80
4390;DHT22;2209;48.982;8.406;2024-03-23T14:14:46;11.80;96.20
4390;DHT22;2209;48.982;8.406;2024-03-23T14:17:08;12.00;96.30
4390;DHT22;2209;48.982;8.406;2024-03-23T14:19:31;12.00;96.30
4390;DHT22;2209;48.982;8.406;2024-03-23T14:21:54;11.80;96.70
4390;DHT22;2209;48.982;8.406;2024-03-23T14:24:15;11.60;97.70
4390;DHT22;2209;48.982;8.406;2024-03-23T14:26:37;11.40;97.80
4390;DHT22;2209;48.982;8.406;2024-03-23T14:28:59;11.30;98.00
4390;DHT22;2209;48.982;8.406;2024-03-23T14:31:21;11.20;98.50
4390;DHT22;2209;48.982;8.406;2024-03-23T14:33:42;11.20;97.60
4390;DHT22;2209;48.982;8.406;2024-03-23T14:36:08;11.10;97.60
4390;DHT22;2209;48.982;8.406;2024-03-23T14:38:30;11.10;97.60
4390;DHT22;2209;48.982;8.406;2024-03-23T14:40:52;11.20;97.40
4390;DHT22;2209;48.982;8.406;2024-03-23T14:43:13;11.30;97.80
4390;DHT22;2209;48.982;8.406;2024-03-23T14:45:36;11.40;97.70
4390;DHT22;2209;48.982;8.406;2024-03-23T14:47:57;11.40;97.50
4390;DHT22;2209;48.982;8.406;2024-03-23T14:50:19;11.50;97.50
4390;DHT22;2209;48.982;8.406;2024-03-23T14:52:45;11.60;97.30
4390;DHT22;2209;48.982;8.406;2024-03-23T14:55:07;11.70;96.70
4390;DHT22;2209;48.982;8.406;2024-03-23T14:57:29;11.80;95.60
4390;DHT22;2209;48.982;8.406;2024-03-23T14:59:51;11.90;95.00
4390;DHT22;2209;48.982;8.406;2024-03-23T15:02:12;12.00;94.90
4390;DHT22;2209;48.982;8.406;2024-03-23T15:04:35;12.00;94.80
4390;DHT22;2209;48.982;8.406;2024-03-23T15:06:57;12.10;95.10
4390;DHT22;2209;48.982;8.406;2024-03-23T15:09:20;12.10;95.30
4390;DHT22;2209;48.982;8.406;2024-03-23T15:11:41;12.10;95.50
4390;DHT22;2209;48.982;8.406;2024-03-23T15:14:04;12.10;95.80
4390;DHT22;2209;48.982;8.406;2024-03-23T15:16:25;12.10;96.00
4390;DHT22;2209;48.982;8.406;2024-03-23T15:18:47;12.20;96.10
4390;DHT22;2209;48.982;8.406;2024-03-23T15:21:08;12.10;96.30
4390;DHT22;2209;48.982;8.406;2024-03-23T15:23:32;12.10;96.50
4390;DHT22;2209;48.982;8.406;2024-03-23T15:25:57;12.20;96.70
4390;DHT22;2209;48.982;8.406;2024-03-23T15:28:20;12.20;96.70
4390;DHT22;2209;48.982;8.406;2024-03-23T15:30:41;12.10;96.70
4390;DHT22;2209;48.982;8.406;2024-03-23T15:33:03;12.00;96.90
4390;DHT22;2209;48.982;8.406;2024-03-23T15:35:24;12.00;97.10
4390;DHT22;2209;48.982;8.406;2024-03-23T15:37:46;12.00;97.10
4390;DHT22;2209;48.982;8.406;2024-03-23T15:40:08;12.10;97.30
4390;DHT22;2209;48.982;8.406;2024-03-23T15:42:33;12.10;97.40
4390;DHT22;2209;48.982;8.406;2024-03-23T15:44:54;12.10;97.60
4390;DHT22;2209;48.982;8.406;2024-03-23T15:47:17;12.00;97.90
4390;DHT22;2209;48.982;8.406;2024-03-23T15:49:38;12.00;98.10
4390;DHT22;2209;48.982;8.406;2024-03-23T15:52:01;12.00;98.40
4390;DHT22;2209;48.982;8.406;2024-03-23T15:54:22;12.00;98.80
4390;DHT22;2209;48.982;8.406;2024-03-23T15:56:44;12.00;98.90
4390;DHT22;2209;48.982;8.406;2024-03-23T15:59:07;12.00;99.20
4390;DHT22;2209;48.982;8.406;2024-03-23T16:01:29;12.00;99.10
4390;DHT22;2209;48.982;8.406;2024-03-23T16:03:50;12.00;99.10
4390;DHT22;2209;48.982;8.406;2024-03-23T16:06:13;11.90;97.80
4390;DHT22;2209;48.982;8.406;2024-03-23T16:08:34;11.90;97.10
4390;DHT22;2209;48.982;8.406;2024-03-23T16:10:59;11.90;97.00
4390;DHT22;2209;48.982;8.406;2024-03-23T16:13:21;11.80;96.90
4390;DHT22;2209;48.982;8.406;2024-03-23T16:15:44;11.80;97.10
4390;DHT22;2209;48.982;8.406;2024-03-23T16:18:06;11.80;96.70
4390;DHT22;2209;48.982;8.406;2024-03-23T16:20:28;11.70;96.80